Latest Coastal Weather Observations for Gold Coast Seaway

IDQ60701

Issued at 10:52 pm EST Saturday 30 July 2016 (issued every 10 minutes, with the page automatically refreshed every 10 minutes)

About coastal observations | Map of coastal stations | Coastal observations for QLD | Marine services | Other Formats
Station Details ID: 040764 Name: GOLD COAST SEAWAY Lat: -27.94 Lon: 153.43 Height: 2.98 m
Data from the previous 72 hours. | See also: Recent months at Gold Coast Seaway
Date/Time
EST
Temp
°C
Wind Pressure Rain since
9am
mm
Weather Cloud Vis
km
Sea
Height
m
Swell
Dir  Spd
kts
Gust
kts
hPa Trend Height
m
Period
s
Dir
30/10:30pm 15.4 WNW 6 7 1020.7 - 0.0 - - - - - - -
30/10:00pm 15.6 W 7 7 1020.6 - 0.0 - - - - - - -
30/09:30pm 15.8 WSW 5 6 1020.6 - 0.0 - - - - - - -
30/09:00pm 15.4 WSW 6 7 1020.5 - 0.0 - - - - - - -
30/08:30pm 15.8 SW 6 8 1020.3 - 0.0 - - - - - - -
30/08:00pm 17.2 SSE 7 8 1020.2 - 0.0 - - - - - - -
30/07:30pm 17.9 SSE 9 10 1020.1 - 0.0 - - - - - - -
30/07:00pm 18.2 SE 8 10 1019.7 - 0.0 - - - - - - -
30/06:30pm 18.3 SE 9 10 1019.4 - 0.0 - - - - - - -
30/06:00pm 18.3 ESE 7 7 1019.2 - 0.0 - - - - - - -
30/05:30pm 18.3 SE 7 8 1018.8 - 0.0 - - - - - - -
30/05:00pm 18.6 SE 8 9 1018.7 - 0.0 - - - - - - -
30/04:30pm 19.5 ESE 8 9 1018.6 - 0.0 - - - - - - -
30/04:00pm 19.8 ESE 9 11 1018.5 - 0.0 - - - - - - -
30/03:30pm 20.1 ESE 10 11 1018.4 - 0.0 - - - - - - -
30/03:00pm 20.6 ESE 10 12 1018.4 - 0.0 - - - - - - -
30/02:30pm 20.9 ESE 9 11 1018.5 - 0.0 - - - - - - -
30/02:00pm 21.4 ESE 8 9 1018.6 - 0.0 - - - - - - -
30/01:30pm 21.1 ENE 5 7 1018.7 - 0.0 - - - - - - -
30/01:00pm 20.8 E 6 7 1018.9 - 0.0 - - - - - - -
30/12:30pm 20.1 ENE 5 6 1019.3 - 0.0 - - - - - - -
30/12:00pm 19.7 ENE 5 5 1019.8 - 0.0 - - - - - - -
30/11:30am 18.8 E 4 5 1020.2 - 0.0 - - - - - - -
30/11:00am 19.0 ESE 5 5 1020.6 - 0.0 - - - - - - -
30/10:30am 19.0 ESE 5 6 1020.8 - 0.0 - - - - - - -
30/10:00am 18.6 NW 1 3 1020.9 - 0.0 - - - - - - -
30/09:30am 16.8 NW 3 4 1020.9 - 0.0 - - - - - - -
30/09:00am 15.4 WNW 5 6 1020.9 - 0.0 - - - - - - -
30/08:30am 14.6 NW 5 7 1020.8 - 0.0 - - - - - - -
30/08:00am 13.0 WNW 6 7 1020.6 - 0.0 - - - - - - -
30/07:30am 11.9 WNW 6 7 1020.3 - 0.0 - - - - - - -
30/07:00am 11.0 W 7 8 1020.0 - 0.0 - - - - - - -
30/06:30am 10.8 W 7 8 1019.7 - 0.0 - - - - - - -
30/06:00am 11.0 WNW 6 8 1019.5 - 0.0 - - - - - - -
30/05:30am 12.3 NW 7 8 1019.1 - 0.0 - - - - - - -
30/05:00am 12.2 NW 7 8 1019.0 - 0.0 - - - - - - -
30/04:30am 11.2 NW 6 6 1018.8 - 0.0 - - - - - - -
30/04:00am 11.8 WNW 5 6 1019.0 - 0.0 - - - - - - -
30/03:30am 12.5 W 6 7 1019.1 - 0.0 - - - - - - -
30/03:00am 13.4 NW 7 8 1019.1 - 0.0 - - - - - - -
30/02:30am 13.0 WNW 6 7 1019.4 - 0.0 - - - - - - -
30/02:00am 12.6 NW 7 8 1019.6 - 0.0 - - - - - - -
30/01:30am 13.0 NW 6 6 1019.7 - 0.0 - - - - - - -
30/01:00am 13.0 WNW 6 7 1020.1 - 0.0 - - - - - - -
30/12:30am 12.1 WNW 5 7 1020.3 - 0.0 - - - - - - -
30/12:00am 12.9 WSW 6 6 1020.4 - 0.0 - - - - - - -
 
Date/Time
EST
Temp
°C
Wind Pressure Rain since
9am
mm
Weather Cloud Vis
km
Sea
Height
m
Swell
Dir  Spd
kts
Gust
kts
hPa Trend Height
m
Period
s
Dir
29/11:30pm 13.2 WSW 6 7 1020.5 - 0.0 - - - - - - -
29/11:00pm 13.6 W 6 6 1020.6 - 0.0 - - - - - - -
29/10:30pm 14.4 W 7 7 1020.7 - 0.0 - - - - - - -
29/10:00pm 15.0 WNW 7 7 1020.7 - 0.0 - - - - - - -
29/09:30pm 15.9 WNW 7 7 1020.6 - 0.0 - - - - - - -
29/09:00pm 15.9 WNW 7 8 1020.6 - 0.0 - - - - - - -
29/08:30pm 15.9 WNW 7 8 1020.5 - 0.0 - - - - - - -
29/08:00pm 15.5 WNW 7 8 1020.4 - 0.0 - - - - - - -
29/07:30pm 16.8 NW 8 9 1020.2 - 0.0 - - - - - - -
29/07:00pm 17.1 NNW 7 9 1019.9 - 0.0 - - - - - - -
29/06:30pm 17.2 NNW 7 9 1019.8 - 0.0 - - - - - - -
29/06:00pm 17.5 N 5 7 1019.6 - 0.0 - - - - - - -
29/05:30pm 18.4 NNW 8 10 1019.2 - 0.0 - - - - - - -
29/05:00pm 19.5 N 12 14 1019.1 - 0.0 - - - - - - -
29/04:30pm 20.5 N 12 15 1019.1 - 0.0 - - - - - - -
29/04:00pm 21.7 N 8 11 1019.0 - 0.0 - - - - - - -
29/03:30pm 22.6 N 6 10 1019.1 - 0.0 - - - - - - -
29/03:00pm 22.9 NNW 7 9 1019.1 - 0.0 - - - - - - -
29/02:30pm 22.7 NW 9 15 1019.3 - 0.0 - - - - - - -
29/02:00pm 22.9 NNW 10 15 1019.7 - 0.0 - - - - - - -
29/01:30pm 22.8 NNW 10 15 1019.9 - 0.0 - - - - - - -
29/01:00pm 22.6 NNW 7 12 1020.4 - 0.0 - - - - - - -
29/12:30pm 22.4 NW 9 13 1021.0 - 0.0 - - - - - - -
29/12:00pm 22.2 NW 9 12 1021.6 - 0.0 - - - - - - -
29/11:30am 21.9 NW 9 12 1022.1 - 0.0 - - - - - - -
29/11:00am 21.4 NW 9 11 1022.6 - 0.0 - - - - - - -
29/10:30am 21.1 WNW 9 11 1022.9 - 0.0 - - - - - - -
29/10:00am 20.1 WNW 9 10 1023.3 - 0.0 - - - - - - -
29/09:30am 18.3 WNW 8 9 1023.4 - 0.0 - - - - - - -
29/09:00am 16.8 NW 6 7 1023.5 - - - - - - - - -
29/08:30am 15.1 NW 6 7 1023.4 - - - - - - - - -
29/08:00am 13.8 W 5 6 1023.3 - - - - - - - - -
29/07:30am 12.8 WNW 7 7 1023.1 - - - - - - - - -
29/07:00am 11.9 WNW 6 7 1023.1 - - - - - - - - -
29/06:30am 11.1 WNW 6 7 1023.0 - - - - - - - - -
29/06:00am 11.4 WNW 6 7 1022.7 - - - - - - - - -
29/05:30am 11.8 WNW 7 7 1022.3 - - - - - - - - -
29/05:00am 11.6 WNW 6 7 1022.0 - - - - - - - - -
29/04:30am 12.0 WNW 6 7 1021.8 - - - - - - - - -
29/04:00am 12.4 WNW 7 7 1021.8 - - - - - - - - -
29/03:30am 12.1 W 5 7 1021.8 - - - - - - - - -
29/03:00am 12.3 WSW 6 7 1021.9 - - - - - - - - -
29/02:30am 12.6 WSW 5 6 1022.0 - 0.0 - - - - - - -
29/02:00am 12.7 WSW 6 7 1022.1 - 0.0 - - - - - - -
29/01:30am 13.0 WSW 6 7 1022.1 - 0.0 - - - - - - -
29/01:00am 12.8 SW 7 8 1022.2 - 0.0 - - - - - - -
29/12:30am 13.0 WSW 6 7 1022.2 - 0.0 - - - - - - -
29/12:00am 13.1 WSW 6 7 1022.3 - 0.0 - - - - - - -
 
Date/Time
EST
Temp
°C
Wind Pressure Rain since
9am
mm
Weather Cloud Vis
km
Sea
Height
m
Swell
Dir  Spd
kts
Gust
kts
hPa Trend Height
m
Period
s
Dir
28/11:30pm 13.3 WSW 6 7 1022.5 - 0.0 - - - - - - -
28/11:00pm 13.4 WSW 6 7 1022.7 - 0.0 - - - - - - -
28/10:30pm 13.5 WSW 6 8 1022.9 - 0.0 - - - - - - -
28/10:00pm 13.6 WSW 6 7 1023.1 - 0.0 - - - - - - -
28/09:30pm 14.1 WSW 6 7 1023.2 - 0.0 - - - - - - -
28/09:00pm 14.3 SW 7 8 1023.3 - 0.0 - - - - - - -
28/08:30pm 14.6 SW 6 8 1023.2 - 0.0 - - - - - - -
28/08:00pm 15.2 SW 5 6 1023.3 - 0.0 - - - - - - -
28/07:30pm 15.1 SW 5 6 1023.3 - 0.0 - - - - - - -
28/07:00pm 15.7 SSW 6 7 1023.1 - 0.0 - - - - - - -
28/06:30pm 17.3 SE 9 11 1022.8 - 0.0 - - - - - - -
28/06:00pm 17.6 SE 10 12 1022.5 - 0.0 - - - - - - -
28/05:30pm 17.8 SE 11 13 1022.3 - 0.0 - - - - - - -
28/05:00pm 18.3 SE 13 15 1022.1 - 0.0 - - - - - - -
28/04:30pm 19.1 SE 14 16 1021.9 - 0.0 - - - - - - -
28/04:00pm 19.9 SE 14 16 1021.9 - 0.0 - - - - - - -
28/03:30pm 20.3 SE 14 16 1021.8 - 0.0 - - - - - - -
28/03:00pm 21.2 SE 14 15 1021.6 - 0.0 - - - - - - -
28/02:30pm 21.7 SE 13 15 1021.7 - 0.0 - - - - - - -
28/02:00pm 21.5 SE 11 14 1021.7 - 0.0 - - - - - - -
28/01:30pm 22.2 SSE 11 14 1021.8 - 0.0 - - - - - - -
28/01:00pm 22.2 SSE 12 14 1022.0 - 0.0 - - - - - - -
28/12:30pm 22.0 SSE 13 15 1022.4 - 0.0 - - - - - - -
28/12:00pm 22.0 SSE 13 15 1022.8 - 0.0 - - - - - - -
28/11:30am 21.5 SSE 14 16 1023.2 - 0.0 - - - - - - -
28/11:00am 21.2 SSE 12 15 1023.4 - 0.0 - - - - - - -
28/10:30am 20.4 SSE 5 6 1023.7 - 0.0 - - - - - - -
28/10:00am 19.1 SE 5 7 1023.8 - 0.0 - - - - - - -
28/09:30am 18.2 WSW 4 6 1023.8 - 0.0 - - - - - - -
28/09:00am 17.0 WNW 5 5 1023.6 - 0.0 - - - - - - -
28/08:30am 15.3 WSW 5 6 1023.3 - 0.0 - - - - - - -
28/08:00am 13.5 WSW 6 7 1023.3 - 0.0 - - - - - - -
28/07:30am 12.4 W 6 8 1022.9 - 0.0 - - - - - - -
28/07:00am 11.3 W 6 7 1022.3 - 0.0 - - - - - - -
28/06:30am 11.1 WSW 6 7 1022.1 - 0.0 - - - - - - -
28/06:00am 10.3 WSW 7 8 1021.8 - 0.0 - - - - - - -
28/05:30am 8.5 WSW 5 6 1021.3 - 0.0 - - - - - - -
28/05:00am 8.7 W 4 4 1021.1 - 0.0 - - - - - - -
28/04:30am 9.8 W 5 6 1020.7 - 0.0 - - - - - - -
28/04:00am 9.8 W 5 6 1020.5 - 0.0 - - - - - - -
28/03:30am 11.3 W 5 7 1020.8 - 0.0 - - - - - - -
28/03:00am 11.1 WSW 5 7 1020.8 - 0.0 - - - - - - -
28/02:30am 11.5 W 5 6 1020.9 - 0.0 - - - - - - -
28/02:00am 12.4 WSW 5 7 1021.0 - 0.0 - - - - - - -
28/01:30am 12.3 WSW 6 8 1021.2 - 0.0 - - - - - - -
28/01:00am 12.1 SW 5 7 1021.2 - 0.0 - - - - - - -
28/12:30am 11.4 WSW 5 6 1021.2 - 0.0 - - - - - - -
28/12:00am 11.8 SSW 4 5 1020.9 - 0.0 - - - - - - -
 
Date/Time
EST
Temp
°C
Wind Pressure Rain since
9am
mm
Weather Cloud Vis
km
Sea
Height
m
Swell
Dir  Spd
kts
Gust
kts
hPa Trend Height
m
Period
s
Dir
27/11:30pm 14.2 SW 5 8 1020.7 - 0.0 - - - - - - -
27/11:00pm 15.0 W 7 9 1020.4 - 0.0 - - - - - - -

Other Formats:

Comma delimited format used in spreadsheet applications
http://www.bom.gov.au/fwo/IDQ60701/IDQ60701.94580.axf

JavaScript Object Notation format (JSON) in row-major order
http://www.bom.gov.au/fwo/IDQ60701/IDQ60701.94580.json